sensor_id;sensor_type;location;lat;lon;timestamp;P1;durP1;ratioP1;P2;durP2;ratioP2
31386;SDS011;69978;50.096;8.448;2023-12-22T00:01:24;2.58;;;0.10;;
31386;SDS011;69978;50.096;8.448;2023-12-22T00:03:49;0.65;;;0.00;;
31386;SDS011;69978;50.096;8.448;2023-12-22T00:06:15;1.25;;;0.10;;
31386;SDS011;69978;50.096;8.448;2023-12-22T00:08:41;2.20;;;0.10;;
31386;SDS011;69978;50.096;8.448;2023-12-22T00:11:06;2.10;;;0.20;;
31386;SDS011;69978;50.096;8.448;2023-12-22T00:13:32;1.55;;;0.10;;
31386;SDS011;69978;50.096;8.448;2023-12-22T00:15:58;3.67;;;0.10;;
31386;SDS011;69978;50.096;8.448;2023-12-22T00:18:25;0.00;;;0.00;;
31386;SDS011;69978;50.096;8.448;2023-12-22T00:20:51;3.00;;;0.40;;
31386;SDS011;69978;50.096;8.448;2023-12-22T00:23:16;1.45;;;0.00;;
31386;SDS011;69978;50.096;8.448;2023-12-22T00:25:42;5.22;;;0.20;;
31386;SDS011;69978;50.096;8.448;2023-12-22T00:28:08;2.53;;;0.08;;
31386;SDS011;69978;50.096;8.448;2023-12-22T00:30:35;4.63;;;0.30;;
31386;SDS011;69978;50.096;8.448;2023-12-22T00:33:01;2.17;;;0.20;;
31386;SDS011;69978;50.096;8.448;2023-12-22T00:35:27;3.40;;;0.20;;
31386;SDS011;69978;50.096;8.448;2023-12-22T00:37:53;5.70;;;0.30;;
31386;SDS011;69978;50.096;8.448;2023-12-22T00:40:18;7.13;;;0.55;;
31386;SDS011;69978;50.096;8.448;2023-12-22T00:42:44;2.90;;;0.13;;
31386;SDS011;69978;50.096;8.448;2023-12-22T00:45:09;5.10;;;0.38;;
31386;SDS011;69978;50.096;8.448;2023-12-22T00:47:35;1.48;;;0.10;;
31386;SDS011;69978;50.096;8.448;2023-12-22T00:50:01;3.95;;;0.35;;
31386;SDS011;69978;50.096;8.448;2023-12-22T00:52:27;3.47;;;0.47;;
31386;SDS011;69978;50.096;8.448;2023-12-22T00:54:53;1.88;;;0.10;;
31386;SDS011;69978;50.096;8.448;2023-12-22T00:57:19;1.63;;;0.10;;
31386;SDS011;69978;50.096;8.448;2023-12-22T00:59:44;1.45;;;0.20;;
31386;SDS011;69978;50.096;8.448;2023-12-22T01:02:15;0.90;;;0.10;;
31386;SDS011;69978;50.096;8.448;2023-12-22T01:04:42;1.27;;;0.15;;
31386;SDS011;69978;50.096;8.448;2023-12-22T01:07:08;1.83;;;0.10;;
31386;SDS011;69978;50.096;8.448;2023-12-22T01:09:34;4.40;;;0.30;;
31386;SDS011;69978;50.096;8.448;2023-12-22T01:12:00;2.13;;;0.20;;
31386;SDS011;69978;50.096;8.448;2023-12-22T01:14:28;4.00;;;0.20;;
31386;SDS011;69978;50.096;8.448;2023-12-22T01:16:54;3.67;;;0.30;;
31386;SDS011;69978;50.096;8.448;2023-12-22T01:19:19;3.53;;;0.20;;
31386;SDS011;69978;50.096;8.448;2023-12-22T01:21:46;3.05;;;0.40;;
31386;SDS011;69978;50.096;8.448;2023-12-22T01:24:12;1.00;;;0.15;;
31386;SDS011;69978;50.096;8.448;2023-12-22T01:26:38;3.97;;;0.82;;
31386;SDS011;69978;50.096;8.448;2023-12-22T01:29:03;1.10;;;0.10;;
31386;SDS011;69978;50.096;8.448;2023-12-22T01:31:29;2.83;;;0.30;;
31386;SDS011;69978;50.096;8.448;2023-12-22T01:33:55;3.08;;;0.30;;
31386;SDS011;69978;50.096;8.448;2023-12-22T01:36:20;1.33;;;0.10;;
31386;SDS011;69978;50.096;8.448;2023-12-22T01:38:46;2.38;;;0.10;;
31386;SDS011;69978;50.096;8.448;2023-12-22T01:41:11;0.32;;;0.00;;
31386;SDS011;69978;50.096;8.448;2023-12-22T01:43:37;1.40;;;0.10;;
31386;SDS011;69978;50.096;8.448;2023-12-22T01:46:03;0.00;;;0.00;;
31386;SDS011;69978;50.096;8.448;2023-12-22T01:48:30;0.08;;;0.00;;
31386;SDS011;69978;50.096;8.448;2023-12-22T01:50:56;0.10;;;0.00;;
31386;SDS011;69978;50.096;8.448;2023-12-22T01:53:24;0.17;;;0.00;;
31386;SDS011;69978;50.096;8.448;2023-12-22T01:55:51;0.13;;;0.08;;
31386;SDS011;69978;50.096;8.448;2023-12-22T01:58:19;0.93;;;0.00;;
31386;SDS011;69978;50.096;8.448;2023-12-22T02:00:47;0.00;;;0.00;;
31386;SDS011;69978;50.096;8.448;2023-12-22T02:03:12;0.32;;;0.00;;
31386;SDS011;69978;50.096;8.448;2023-12-22T02:05:40;0.00;;;0.00;;
31386;SDS011;69978;50.096;8.448;2023-12-22T02:08:07;0.25;;;0.00;;
31386;SDS011;69978;50.096;8.448;2023-12-22T02:10:32;0.73;;;0.10;;
31386;SDS011;69978;50.096;8.448;2023-12-22T02:12:58;0.82;;;0.00;;
31386;SDS011;69978;50.096;8.448;2023-12-22T02:15:24;0.00;;;0.00;;
31386;SDS011;69978;50.096;8.448;2023-12-22T02:18:02;0.30;;;0.00;;
31386;SDS011;69978;50.096;8.448;2023-12-22T02:20:44;0.75;;;0.00;;
31386;SDS011;69978;50.096;8.448;2023-12-22T02:23:11;1.55;;;0.00;;
31386;SDS011;69978;50.096;8.448;2023-12-22T02:25:37;0.25;;;0.10;;
31386;SDS011;69978;50.096;8.448;2023-12-22T02:28:07;0.32;;;0.00;;
31386;SDS011;69978;50.096;8.448;2023-12-22T02:30:39;1.87;;;0.10;;
31386;SDS011;69978;50.096;8.448;2023-12-22T02:33:11;0.80;;;0.00;;
31386;SDS011;69978;50.096;8.448;2023-12-22T02:35:40;0.65;;;0.17;;
31386;SDS011;69978;50.096;8.448;2023-12-22T02:38:07;2.35;;;0.10;;
31386;SDS011;69978;50.096;8.448;2023-12-22T02:40:34;2.95;;;0.20;;
31386;SDS011;69978;50.096;8.448;2023-12-22T02:43:01;4.43;;;0.10;;
31386;SDS011;69978;50.096;8.448;2023-12-22T02:45:27;0.30;;;0.00;;
31386;SDS011;69978;50.096;8.448;2023-12-22T02:47:55;1.85;;;0.10;;
31386;SDS011;69978;50.096;8.448;2023-12-22T02:50:20;1.95;;;0.20;;
31386;SDS011;69978;50.096;8.448;2023-12-22T02:52:46;1.17;;;0.20;;
31386;SDS011;69978;50.096;8.448;2023-12-22T02:55:12;1.70;;;0.10;;
31386;SDS011;69978;50.096;8.448;2023-12-22T02:57:37;3.53;;;0.20;;
31386;SDS011;69978;50.096;8.448;2023-12-22T03:00:03;4.30;;;0.20;;
31386;SDS011;69978;50.096;8.448;2023-12-22T03:02:29;5.60;;;0.35;;
31386;SDS011;69978;50.096;8.448;2023-12-22T03:04:55;4.60;;;0.20;;
31386;SDS011;69978;50.096;8.448;2023-12-22T03:07:20;6.13;;;0.32;;
31386;SDS011;69978;50.096;8.448;2023-12-22T03:09:46;6.35;;;0.40;;
31386;SDS011;69978;50.096;8.448;2023-12-22T03:12:12;5.75;;;0.20;;
31386;SDS011;69978;50.096;8.448;2023-12-22T03:14:38;8.23;;;0.30;;
31386;SDS011;69978;50.096;8.448;2023-12-22T03:17:04;3.35;;;0.30;;
31386;SDS011;69978;50.096;8.448;2023-12-22T03:19:31;4.57;;;0.22;;
31386;SDS011;69978;50.096;8.448;2023-12-22T03:21:57;2.90;;;0.30;;
31386;SDS011;69978;50.096;8.448;2023-12-22T03:24:23;3.78;;;0.30;;
31386;SDS011;69978;50.096;8.448;2023-12-22T03:26:50;2.53;;;0.20;;
31386;SDS011;69978;50.096;8.448;2023-12-22T03:29:16;2.55;;;0.20;;
31386;SDS011;69978;50.096;8.448;2023-12-22T03:31:45;5.80;;;0.40;;
31386;SDS011;69978;50.096;8.448;2023-12-22T03:34:11;4.00;;;0.30;;
31386;SDS011;69978;50.096;8.448;2023-12-22T03:36:37;2.42;;;0.25;;
31386;SDS011;69978;50.096;8.448;2023-12-22T03:39:03;2.17;;;0.22;;
31386;SDS011;69978;50.096;8.448;2023-12-22T03:41:29;3.80;;;0.40;;
31386;SDS011;69978;50.096;8.448;2023-12-22T03:43:55;3.35;;;0.32;;
31386;SDS011;69978;50.096;8.448;2023-12-22T03:46:21;3.63;;;0.25;;
31386;SDS011;69978;50.096;8.448;2023-12-22T03:48:47;3.53;;;0.25;;
31386;SDS011;69978;50.096;8.448;2023-12-22T03:51:12;4.53;;;0.40;;
31386;SDS011;69978;50.096;8.448;2023-12-22T03:53:39;5.28;;;0.50;;
31386;SDS011;69978;50.096;8.448;2023-12-22T03:56:06;4.53;;;0.30;;
31386;SDS011;69978;50.096;8.448;2023-12-22T03:58:33;2.63;;;0.35;;
31386;SDS011;69978;50.096;8.448;2023-12-22T04:00:59;5.95;;;0.38;;
31386;SDS011;69978;50.096;8.448;2023-12-22T04:03:25;7.07;;;0.55;;
31386;SDS011;69978;50.096;8.448;2023-12-22T04:05:51;6.93;;;0.93;;
31386;SDS011;69978;50.096;8.448;2023-12-22T04:08:17;4.03;;;0.30;;
31386;SDS011;69978;50.096;8.448;2023-12-22T04:10:42;5.28;;;0.47;;
31386;SDS011;69978;50.096;8.448;2023-12-22T04:13:09;5.32;;;0.55;;
31386;SDS011;69978;50.096;8.448;2023-12-22T04:15:35;5.95;;;0.60;;
31386;SDS011;69978;50.096;8.448;2023-12-22T04:18:00;7.65;;;0.55;;
31386;SDS011;69978;50.096;8.448;2023-12-22T04:20:26;5.35;;;0.57;;
31386;SDS011;69978;50.096;8.448;2023-12-22T04:22:52;8.90;;;0.60;;
31386;SDS011;69978;50.096;8.448;2023-12-22T04:25:17;5.50;;;0.80;;
31386;SDS011;69978;50.096;8.448;2023-12-22T04:27:43;11.02;;;0.65;;
31386;SDS011;69978;50.096;8.448;2023-12-22T04:30:08;6.15;;;0.52;;
31386;SDS011;69978;50.096;8.448;2023-12-22T04:32:34;10.20;;;0.77;;
31386;SDS011;69978;50.096;8.448;2023-12-22T04:35:01;5.72;;;0.60;;
31386;SDS011;69978;50.096;8.448;2023-12-22T04:37:27;4.90;;;0.40;;
31386;SDS011;69978;50.096;8.448;2023-12-22T04:39:53;15.18;;;1.13;;
31386;SDS011;69978;50.096;8.448;2023-12-22T04:42:18;5.28;;;0.77;;
31386;SDS011;69978;50.096;8.448;2023-12-22T04:44:44;10.25;;;0.77;;
31386;SDS011;69978;50.096;8.448;2023-12-22T04:47:10;7.43;;;0.50;;
31386;SDS011;69978;50.096;8.448;2023-12-22T04:49:37;5.35;;;0.50;;
31386;SDS011;69978;50.096;8.448;2023-12-22T04:52:03;8.35;;;0.52;;
31386;SDS011;69978;50.096;8.448;2023-12-22T04:54:28;6.10;;;0.50;;
31386;SDS011;69978;50.096;8.448;2023-12-22T04:56:54;8.85;;;1.20;;
31386;SDS011;69978;50.096;8.448;2023-12-22T04:59:19;9.25;;;0.55;;
31386;SDS011;69978;50.096;8.448;2023-12-22T05:01:45;10.77;;;0.88;;
31386;SDS011;69978;50.096;8.448;2023-12-22T05:04:11;5.38;;;0.63;;
31386;SDS011;69978;50.096;8.448;2023-12-22T05:06:36;6.82;;;1.23;;
31386;SDS011;69978;50.096;8.448;2023-12-22T05:09:02;6.53;;;0.60;;
31386;SDS011;69978;50.096;8.448;2023-12-22T05:11:28;9.40;;;0.60;;
31386;SDS011;69978;50.096;8.448;2023-12-22T05:13:55;6.10;;;0.93;;
31386;SDS011;69978;50.096;8.448;2023-12-22T05:16:21;4.55;;;0.40;;
31386;SDS011;69978;50.096;8.448;2023-12-22T05:18:46;13.52;;;0.85;;
31386;SDS011;69978;50.096;8.448;2023-12-22T05:21:12;6.75;;;0.50;;
31386;SDS011;69978;50.096;8.448;2023-12-22T05:23:39;9.40;;;0.60;;
31386;SDS011;69978;50.096;8.448;2023-12-22T05:26:05;7.43;;;0.45;;
31386;SDS011;69978;50.096;8.448;2023-12-22T05:28:30;4.38;;;0.40;;
31386;SDS011;69978;50.096;8.448;2023-12-22T05:30:57;7.50;;;0.47;;
31386;SDS011;69978;50.096;8.448;2023-12-22T05:33:22;4.75;;;0.45;;
31386;SDS011;69978;50.096;8.448;2023-12-22T05:35:48;8.75;;;0.95;;
31386;SDS011;69978;50.096;8.448;2023-12-22T05:38:13;3.63;;;0.25;;
31386;SDS011;69978;50.096;8.448;2023-12-22T05:40:39;4.50;;;0.50;;
31386;SDS011;69978;50.096;8.448;2023-12-22T05:43:04;6.40;;;0.60;;
31386;SDS011;69978;50.096;8.448;2023-12-22T05:45:30;2.90;;;0.45;;
31386;SDS011;69978;50.096;8.448;2023-12-22T05:47:55;5.45;;;0.65;;
31386;SDS011;69978;50.096;8.448;2023-12-22T05:50:21;8.15;;;0.60;;
31386;SDS011;69978;50.096;8.448;2023-12-22T05:52:46;5.97;;;0.45;;
31386;SDS011;69978;50.096;8.448;2023-12-22T05:55:12;6.20;;;0.45;;
31386;SDS011;69978;50.096;8.448;2023-12-22T05:57:37;9.18;;;0.63;;
31386;SDS011;69978;50.096;8.448;2023-12-22T06:00:04;6.90;;;0.93;;
31386;SDS011;69978;50.096;8.448;2023-12-22T06:02:33;5.30;;;0.38;;
31386;SDS011;69978;50.096;8.448;2023-12-22T06:04:58;6.65;;;0.40;;
31386;SDS011;69978;50.096;8.448;2023-12-22T06:07:24;4.68;;;0.50;;
31386;SDS011;69978;50.096;8.448;2023-12-22T06:09:53;3.22;;;0.35;;
31386;SDS011;69978;50.096;8.448;2023-12-22T06:12:19;5.93;;;0.40;;
31386;SDS011;69978;50.096;8.448;2023-12-22T06:14:45;7.25;;;0.57;;
31386;SDS011;69978;50.096;8.448;2023-12-22T06:17:11;3.13;;;0.25;;
31386;SDS011;69978;50.096;8.448;2023-12-22T06:19:37;15.15;;;1.02;;
31386;SDS011;69978;50.096;8.448;2023-12-22T06:22:03;4.50;;;0.30;;
31386;SDS011;69978;50.096;8.448;2023-12-22T06:24:29;4.43;;;0.40;;
31386;SDS011;69978;50.096;8.448;2023-12-22T06:26:54;4.90;;;0.50;;
31386;SDS011;69978;50.096;8.448;2023-12-22T06:29:20;1.67;;;0.20;;
31386;SDS011;69978;50.096;8.448;2023-12-22T06:31:46;2.83;;;0.40;;
31386;SDS011;69978;50.096;8.448;2023-12-22T06:34:15;7.43;;;0.90;;
31386;SDS011;69978;50.096;8.448;2023-12-22T06:36:41;7.03;;;0.40;;
31386;SDS011;69978;50.096;8.448;2023-12-22T06:39:07;6.00;;;0.50;;
31386;SDS011;69978;50.096;8.448;2023-12-22T06:41:33;6.40;;;0.30;;
31386;SDS011;69978;50.096;8.448;2023-12-22T06:43:59;3.75;;;0.38;;
31386;SDS011;69978;50.096;8.448;2023-12-22T06:46:26;3.88;;;0.43;;
31386;SDS011;69978;50.096;8.448;2023-12-22T06:48:54;3.10;;;0.38;;
31386;SDS011;69978;50.096;8.448;2023-12-22T06:51:24;9.90;;;0.40;;
31386;SDS011;69978;50.096;8.448;2023-12-22T06:54:00;5.68;;;0.57;;
31386;SDS011;69978;50.096;8.448;2023-12-22T06:56:27;5.55;;;0.57;;
31386;SDS011;69978;50.096;8.448;2023-12-22T06:58:55;5.30;;;0.70;;
31386;SDS011;69978;50.096;8.448;2023-12-22T07:01:26;5.15;;;0.32;;
31386;SDS011;69978;50.096;8.448;2023-12-22T07:03:53;7.30;;;0.43;;
31386;SDS011;69978;50.096;8.448;2023-12-22T07:06:19;4.68;;;0.50;;
31386;SDS011;69978;50.096;8.448;2023-12-22T07:09:27;2.50;;;0.30;;
31386;SDS011;69978;50.096;8.448;2023-12-22T07:11:49;6.60;;;0.43;;
31386;SDS011;69978;50.096;8.448;2023-12-22T07:14:17;6.43;;;0.40;;
31386;SDS011;69978;50.096;8.448;2023-12-22T07:16:43;3.80;;;0.40;;
31386;SDS011;69978;50.096;8.448;2023-12-22T07:19:10;5.80;;;0.63;;
31386;SDS011;69978;50.096;8.448;2023-12-22T07:21:41;6.80;;;0.70;;
31386;SDS011;69978;50.096;8.448;2023-12-22T07:24:07;4.97;;;0.52;;
31386;SDS011;69978;50.096;8.448;2023-12-22T07:26:33;4.82;;;0.60;;
31386;SDS011;69978;50.096;8.448;2023-12-22T07:28:59;7.32;;;0.63;;
31386;SDS011;69978;50.096;8.448;2023-12-22T07:31:27;6.70;;;0.35;;
31386;SDS011;69978;50.096;8.448;2023-12-22T07:33:52;8.18;;;0.80;;
31386;SDS011;69978;50.096;8.448;2023-12-22T07:36:18;6.10;;;0.60;;
31386;SDS011;69978;50.096;8.448;2023-12-22T07:38:46;13.88;;;0.90;;
31386;SDS011;69978;50.096;8.448;2023-12-22T07:41:12;12.68;;;0.70;;
31386;SDS011;69978;50.096;8.448;2023-12-22T07:43:37;7.68;;;0.77;;
31386;SDS011;69978;50.096;8.448;2023-12-22T07:46:03;11.80;;;0.80;;
31386;SDS011;69978;50.096;8.448;2023-12-22T07:48:29;9.07;;;0.65;;
31386;SDS011;69978;50.096;8.448;2023-12-22T07:50:54;5.85;;;0.50;;
31386;SDS011;69978;50.096;8.448;2023-12-22T07:53:20;5.32;;;0.70;;
31386;SDS011;69978;50.096;8.448;2023-12-22T07:55:46;8.85;;;1.00;;
31386;SDS011;69978;50.096;8.448;2023-12-22T07:58:12;8.52;;;0.65;;
31386;SDS011;69978;50.096;8.448;2023-12-22T08:00:39;12.80;;;1.00;;
31386;SDS011;69978;50.096;8.448;2023-12-22T08:03:05;2.05;;;0.40;;
31386;SDS011;69978;50.096;8.448;2023-12-22T08:05:30;5.40;;;0.80;;
31386;SDS011;69978;50.096;8.448;2023-12-22T08:07:56;4.15;;;0.50;;
31386;SDS011;69978;50.096;8.448;2023-12-22T08:10:23;7.13;;;0.60;;
31386;SDS011;69978;50.096;8.448;2023-12-22T08:12:49;5.30;;;0.50;;
31386;SDS011;69978;50.096;8.448;2023-12-22T08:15:16;4.88;;;0.50;;
31386;SDS011;69978;50.096;8.448;2023-12-22T08:17:50;3.28;;;0.45;;
31386;SDS011;69978;50.096;8.448;2023-12-22T08:20:17;5.05;;;0.40;;
31386;SDS011;69978;50.096;8.448;2023-12-22T08:22:44;3.13;;;0.40;;
31386;SDS011;69978;50.096;8.448;2023-12-22T08:25:14;3.42;;;0.38;;
31386;SDS011;69978;50.096;8.448;2023-12-22T08:27:40;3.85;;;0.20;;
31386;SDS011;69978;50.096;8.448;2023-12-22T08:30:06;3.20;;;0.22;;
31386;SDS011;69978;50.096;8.448;2023-12-22T08:32:33;3.05;;;0.20;;
31386;SDS011;69978;50.096;8.448;2023-12-22T08:34:59;1.38;;;0.20;;
31386;SDS011;69978;50.096;8.448;2023-12-22T08:37:24;2.13;;;0.15;;
31386;SDS011;69978;50.096;8.448;2023-12-22T08:39:50;1.85;;;0.10;;
31386;SDS011;69978;50.096;8.448;2023-12-22T08:42:16;1.40;;;0.10;;
31386;SDS011;69978;50.096;8.448;2023-12-22T08:44:42;3.30;;;0.13;;
31386;SDS011;69978;50.096;8.448;2023-12-22T08:47:08;1.98;;;0.10;;
31386;SDS011;69978;50.096;8.448;2023-12-22T08:49:33;3.28;;;0.30;;
31386;SDS011;69978;50.096;8.448;2023-12-22T08:51:59;1.73;;;0.10;;
31386;SDS011;69978;50.096;8.448;2023-12-22T08:54:25;1.98;;;0.10;;
31386;SDS011;69978;50.096;8.448;2023-12-22T08:56:51;1.65;;;0.15;;
31386;SDS011;69978;50.096;8.448;2023-12-22T08:59:17;0.90;;;0.10;;
31386;SDS011;69978;50.096;8.448;2023-12-22T09:01:43;1.42;;;0.20;;
31386;SDS011;69978;50.096;8.448;2023-12-22T09:04:11;1.77;;;0.20;;
31386;SDS011;69978;50.096;8.448;2023-12-22T09:06:37;1.90;;;0.10;;
31386;SDS011;69978;50.096;8.448;2023-12-22T09:09:03;0.85;;;0.10;;
31386;SDS011;69978;50.096;8.448;2023-12-22T09:11:30;1.02;;;0.10;;
31386;SDS011;69978;50.096;8.448;2023-12-22T09:13:56;1.80;;;0.30;;
31386;SDS011;69978;50.096;8.448;2023-12-22T09:16:21;0.85;;;0.10;;
31386;SDS011;69978;50.096;8.448;2023-12-22T09:18:48;1.55;;;0.15;;
31386;SDS011;69978;50.096;8.448;2023-12-22T09:21:14;0.77;;;0.17;;
31386;SDS011;69978;50.096;8.448;2023-12-22T09:23:42;2.50;;;0.10;;
31386;SDS011;69978;50.096;8.448;2023-12-22T09:26:14;2.10;;;0.13;;
31386;SDS011;69978;50.096;8.448;2023-12-22T09:28:40;4.55;;;0.20;;
31386;SDS011;69978;50.096;8.448;2023-12-22T09:31:06;0.28;;;0.00;;
31386;SDS011;69978;50.096;8.448;2023-12-22T09:33:32;2.40;;;0.20;;
31386;SDS011;69978;50.096;8.448;2023-12-22T09:35:58;3.15;;;0.20;;
31386;SDS011;69978;50.096;8.448;2023-12-22T09:38:24;1.90;;;0.20;;
31386;SDS011;69978;50.096;8.448;2023-12-22T09:40:50;3.50;;;0.40;;
31386;SDS011;69978;50.096;8.448;2023-12-22T09:43:17;3.85;;;0.60;;
31386;SDS011;69978;50.096;8.448;2023-12-22T09:45:45;3.35;;;0.22;;
31386;SDS011;69978;50.096;8.448;2023-12-22T09:48:12;1.23;;;0.10;;
31386;SDS011;69978;50.096;8.448;2023-12-22T09:50:43;1.88;;;0.40;;
31386;SDS011;69978;50.096;8.448;2023-12-22T09:53:09;5.88;;;0.40;;
31386;SDS011;69978;50.096;8.448;2023-12-22T09:55:39;5.57;;;0.50;;
31386;SDS011;69978;50.096;8.448;2023-12-22T09:58:08;4.00;;;0.40;;
31386;SDS011;69978;50.096;8.448;2023-12-22T10:00:35;6.82;;;0.40;;
31386;SDS011;69978;50.096;8.448;2023-12-22T10:03:04;6.38;;;0.85;;
31386;SDS011;69978;50.096;8.448;2023-12-22T10:05:31;10.82;;;1.27;;
31386;SDS011;69978;50.096;8.448;2023-12-22T10:07:57;4.13;;;0.80;;
31386;SDS011;69978;50.096;8.448;2023-12-22T10:10:26;5.38;;;0.70;;
31386;SDS011;69978;50.096;8.448;2023-12-22T10:12:56;6.55;;;0.93;;
31386;SDS011;69978;50.096;8.448;2023-12-22T10:15:24;7.60;;;1.10;;
31386;SDS011;69978;50.096;8.448;2023-12-22T10:17:51;11.27;;;1.00;;
31386;SDS011;69978;50.096;8.448;2023-12-22T10:20:17;7.95;;;1.05;;
31386;SDS011;69978;50.096;8.448;2023-12-22T10:22:43;11.50;;;1.40;;
31386;SDS011;69978;50.096;8.448;2023-12-22T10:25:08;6.40;;;0.80;;
31386;SDS011;69978;50.096;8.448;2023-12-22T10:27:37;6.47;;;0.90;;
31386;SDS011;69978;50.096;8.448;2023-12-22T10:30:03;6.60;;;1.15;;
31386;SDS011;69978;50.096;8.448;2023-12-22T10:32:29;13.88;;;1.00;;
31386;SDS011;69978;50.096;8.448;2023-12-22T10:34:55;8.57;;;0.80;;
31386;SDS011;69978;50.096;8.448;2023-12-22T10:37:24;7.22;;;1.00;;
31386;SDS011;69978;50.096;8.448;2023-12-22T10:39:54;9.55;;;1.00;;
31386;SDS011;69978;50.096;8.448;2023-12-22T10:42:20;12.63;;;1.17;;
31386;SDS011;69978;50.096;8.448;2023-12-22T10:44:46;6.50;;;1.02;;
31386;SDS011;69978;50.096;8.448;2023-12-22T10:47:13;14.02;;;1.15;;
31386;SDS011;69978;50.096;8.448;2023-12-22T10:49:38;12.13;;;1.10;;
31386;SDS011;69978;50.096;8.448;2023-12-22T10:52:04;14.27;;;1.33;;
31386;SDS011;69978;50.096;8.448;2023-12-22T10:54:31;13.75;;;1.52;;
31386;SDS011;69978;50.096;8.448;2023-12-22T10:57:00;8.98;;;1.00;;
31386;SDS011;69978;50.096;8.448;2023-12-22T10:59:27;14.00;;;0.98;;
31386;SDS011;69978;50.096;8.448;2023-12-22T11:01:56;10.07;;;0.82;;
31386;SDS011;69978;50.096;8.448;2023-12-22T11:04:22;8.25;;;1.23;;
31386;SDS011;69978;50.096;8.448;2023-12-22T11:06:54;14.68;;;1.38;;
31386;SDS011;69978;50.096;8.448;2023-12-22T11:09:23;13.27;;;1.20;;
31386;SDS011;69978;50.096;8.448;2023-12-22T11:11:51;6.57;;;1.60;;
31386;SDS011;69978;50.096;8.448;2023-12-22T11:14:17;16.55;;;1.48;;
31386;SDS011;69978;50.096;8.448;2023-12-22T11:16:44;14.88;;;1.13;;
31386;SDS011;69978;50.096;8.448;2023-12-22T11:19:14;12.45;;;1.20;;
31386;SDS011;69978;50.096;8.448;2023-12-22T11:21:40;5.93;;;0.88;;
31386;SDS011;69978;50.096;8.448;2023-12-22T11:24:07;8.82;;;1.13;;
31386;SDS011;69978;50.096;8.448;2023-12-22T11:26:33;9.23;;;1.10;;
31386;SDS011;69978;50.096;8.448;2023-12-22T11:29:00;7.88;;;1.00;;
31386;SDS011;69978;50.096;8.448;2023-12-22T11:34:44;6.95;;;0.82;;
31386;SDS011;69978;50.096;8.448;2023-12-22T11:37:14;7.28;;;0.98;;
31386;SDS011;69978;50.096;8.448;2023-12-22T11:39:44;9.32;;;0.82;;
31386;SDS011;69978;50.096;8.448;2023-12-22T11:42:16;4.88;;;0.50;;
31386;SDS011;69978;50.096;8.448;2023-12-22T11:44:44;11.57;;;1.33;;
31386;SDS011;69978;50.096;8.448;2023-12-22T11:47:10;11.48;;;1.10;;
31386;SDS011;69978;50.096;8.448;2023-12-22T11:49:38;12.70;;;1.17;;
31386;SDS011;69978;50.096;8.448;2023-12-22T11:52:46;6.15;;;0.63;;
31386;SDS011;69978;50.096;8.448;2023-12-22T11:54:56;9.80;;;0.70;;
31386;SDS011;69978;50.096;8.448;2023-12-22T11:59:52;5.68;;;0.50;;
31386;SDS011;69978;50.096;8.448;2023-12-22T12:02:19;4.25;;;0.60;;
31386;SDS011;69978;50.096;8.448;2023-12-22T12:04:51;12.48;;;0.93;;
31386;SDS011;69978;50.096;8.448;2023-12-22T12:10:02;6.20;;;0.60;;
31386;SDS011;69978;50.096;8.448;2023-12-22T12:12:28;5.90;;;0.63;;
31386;SDS011;69978;50.096;8.448;2023-12-22T12:14:57;8.43;;;0.88;;
31386;SDS011;69978;50.096;8.448;2023-12-22T12:17:27;1.75;;;0.30;;
31386;SDS011;69978;50.096;8.448;2023-12-22T12:19:54;5.13;;;0.90;;
31386;SDS011;69978;50.096;8.448;2023-12-22T12:22:19;2.95;;;0.50;;
31386;SDS011;69978;50.096;8.448;2023-12-22T12:24:49;3.38;;;0.30;;
31386;SDS011;69978;50.096;8.448;2023-12-22T12:27:18;2.25;;;0.32;;
31386;SDS011;69978;50.096;8.448;2023-12-22T12:29:44;2.08;;;0.20;;
31386;SDS011;69978;50.096;8.448;2023-12-22T12:32:10;5.43;;;0.40;;
31386;SDS011;69978;50.096;8.448;2023-12-22T12:34:42;2.28;;;0.30;;
31386;SDS011;69978;50.096;8.448;2023-12-22T12:37:08;1.02;;;0.15;;
31386;SDS011;69978;50.096;8.448;2023-12-22T12:39:34;4.32;;;0.30;;
31386;SDS011;69978;50.096;8.448;2023-12-22T12:42:01;4.28;;;0.30;;
31386;SDS011;69978;50.096;8.448;2023-12-22T12:44:29;6.30;;;0.40;;
31386;SDS011;69978;50.096;8.448;2023-12-22T12:46:57;7.65;;;0.25;;
31386;SDS011;69978;50.096;8.448;2023-12-22T12:49:23;3.22;;;0.30;;
31386;SDS011;69978;50.096;8.448;2023-12-22T12:51:52;4.65;;;0.30;;
31386;SDS011;69978;50.096;8.448;2023-12-22T12:54:18;2.38;;;0.25;;
31386;SDS011;69978;50.096;8.448;2023-12-22T12:56:44;1.48;;;0.10;;
31386;SDS011;69978;50.096;8.448;2023-12-22T12:59:12;4.30;;;0.20;;
31386;SDS011;69978;50.096;8.448;2023-12-22T13:01:40;3.75;;;0.25;;
31386;SDS011;69978;50.096;8.448;2023-12-22T13:04:07;4.38;;;0.40;;
31386;SDS011;69978;50.096;8.448;2023-12-22T13:06:33;1.77;;;0.10;;
31386;SDS011;69978;50.096;8.448;2023-12-22T13:08:59;2.20;;;0.30;;
31386;SDS011;69978;50.096;8.448;2023-12-22T13:11:27;2.03;;;0.22;;
31386;SDS011;69978;50.096;8.448;2023-12-22T13:13:56;2.88;;;0.30;;
31386;SDS011;69978;50.096;8.448;2023-12-22T13:16:22;0.32;;;0.10;;
31386;SDS011;69978;50.096;8.448;2023-12-22T13:18:54;0.47;;;0.20;;
31386;SDS011;69978;50.096;8.448;2023-12-22T13:21:20;0.55;;;0.10;;
31386;SDS011;69978;50.096;8.448;2023-12-22T13:23:46;0.35;;;0.00;;
31386;SDS011;69978;50.096;8.448;2023-12-22T13:26:18;3.10;;;0.20;;
31386;SDS011;69978;50.096;8.448;2023-12-22T13:28:45;2.78;;;0.50;;
31386;SDS011;69978;50.096;8.448;2023-12-22T13:31:14;3.78;;;0.20;;
31386;SDS011;69978;50.096;8.448;2023-12-22T13:33:43;0.28;;;0.10;;
31386;SDS011;69978;50.096;8.448;2023-12-22T13:36:09;1.48;;;0.20;;
31386;SDS011;69978;50.096;8.448;2023-12-22T13:38:35;0.20;;;0.00;;
31386;SDS011;69978;50.096;8.448;2023-12-22T13:41:06;1.85;;;0.25;;
31386;SDS011;69978;50.096;8.448;2023-12-22T13:43:32;0.40;;;0.10;;
31386;SDS011;69978;50.096;8.448;2023-12-22T13:45:58;2.28;;;0.10;;
31386;SDS011;69978;50.096;8.448;2023-12-22T13:48:24;0.93;;;0.15;;
31386;SDS011;69978;50.096;8.448;2023-12-22T13:50:56;0.10;;;0.00;;
31386;SDS011;69978;50.096;8.448;2023-12-22T13:53:28;1.85;;;0.17;;
31386;SDS011;69978;50.096;8.448;2023-12-22T13:55:59;1.73;;;0.20;;
31386;SDS011;69978;50.096;8.448;2023-12-22T13:58:25;1.75;;;0.20;;
31386;SDS011;69978;50.096;8.448;2023-12-22T14:00:52;1.00;;;0.20;;
31386;SDS011;69978;50.096;8.448;2023-12-22T14:03:18;0.38;;;0.00;;
31386;SDS011;69978;50.096;8.448;2023-12-22T14:05:48;3.22;;;0.17;;
31386;SDS011;69978;50.096;8.448;2023-12-22T14:08:14;2.20;;;0.20;;
31386;SDS011;69978;50.096;8.448;2023-12-22T14:10:49;0.30;;;0.10;;
31386;SDS011;69978;50.096;8.448;2023-12-22T14:13:15;0.65;;;0.08;;
31386;SDS011;69978;50.096;8.448;2023-12-22T14:15:42;0.40;;;0.10;;
31386;SDS011;69978;50.096;8.448;2023-12-22T14:18:10;1.23;;;0.10;;
31386;SDS011;69978;50.096;8.448;2023-12-22T14:20:36;1.75;;;0.20;;
31386;SDS011;69978;50.096;8.448;2023-12-22T14:23:02;2.47;;;0.20;;
31386;SDS011;69978;50.096;8.448;2023-12-22T14:25:28;0.30;;;0.10;;
31386;SDS011;69978;50.096;8.448;2023-12-22T14:27:55;1.85;;;0.15;;
31386;SDS011;69978;50.096;8.448;2023-12-22T14:30:25;1.13;;;0.10;;
31386;SDS011;69978;50.096;8.448;2023-12-22T14:32:51;2.10;;;0.10;;
31386;SDS011;69978;50.096;8.448;2023-12-22T14:35:16;3.20;;;0.20;;
31386;SDS011;69978;50.096;8.448;2023-12-22T14:37:42;0.32;;;0.00;;
31386;SDS011;69978;50.096;8.448;2023-12-22T14:40:08;1.27;;;0.10;;
31386;SDS011;69978;50.096;8.448;2023-12-22T14:42:34;1.00;;;0.10;;
31386;SDS011;69978;50.096;8.448;2023-12-22T14:44:59;0.90;;;0.10;;
31386;SDS011;69978;50.096;8.448;2023-12-22T14:47:26;0.90;;;0.10;;
31386;SDS011;69978;50.096;8.448;2023-12-22T14:49:52;2.15;;;0.20;;
31386;SDS011;69978;50.096;8.448;2023-12-22T14:52:17;0.40;;;0.00;;